Time;durP1;ratioP1;P1;durP2;ratioP2;P2;SDS_P1;SDS_P2;PMS_P1;PMS_P2;Temp;Humidity;BMP_temperature;BMP_pressure;BME280_temperature;BME280_humidity;BME280_pressure;Samples;Min_cycle;Max_cycle;Signal;HPM_P1;HPM_P2
2021/04/19 00:02:07;;;;;;;79.35;41.23;;;;;;;4.26;74.04;97297.56;1818247;77;25706;-79
2021/04/19 00:04:35;;;;;;;137.60;53.60;;;;;;;4.25;74.07;97292.72;1841657;77;27568;-79
2021/04/19 00:07:04;;;;;;;106.22;47.20;;;;;;;4.26;74.10;97294.89;1838355;77;26502;-79
2021/04/19 00:09:31;;;;;;;89.55;44.83;;;;;;;4.25;74.18;97285.20;1844381;77;26584;-79
2021/04/19 00:11:59;;;;;;;88.33;47.03;;;;;;;4.24;74.17;97288.88;1836022;77;25746;-79
2021/04/19 00:14:26;;;;;;;92.30;46.23;;;;;;;4.23;74.21;97284.55;1828222;77;25802;-79
2021/04/19 00:16:54;;;;;;;77.30;40.43;;;;;;;4.23;74.23;97279.20;1851764;77;27483;-79
2021/04/19 00:19:21;;;;;;;74.32;39.48;;;;;;;4.25;74.22;97279.86;1783693;77;25809;-79
2021/04/19 00:21:49;;;;;;;71.95;37.90;;;;;;;4.24;74.26;97276.86;1804295;77;25718;-79
2021/04/19 00:24:16;;;;;;;77.80;38.38;;;;;;;4.23;74.30;97276.02;1818221;77;26495;-79
2021/04/19 00:26:44;;;;;;;74.60;38.92;;;;;;;4.25;74.36;97281.20;1818250;77;25830;-79
2021/04/19 00:29:11;;;;;;;73.95;38.55;;;;;;;4.23;74.37;97269.34;1830544;77;28480;-79
2021/04/19 00:31:38;;;;;;;75.28;39.40;;;;;;;4.25;74.37;97271.84;1842739;77;25728;-79
2021/04/19 00:34:06;;;;;;;69.22;37.95;;;;;;;4.25;74.36;97273.18;1825029;77;25294;-79
2021/04/19 00:36:34;;;;;;;70.78;38.08;;;;;;;4.26;74.36;97268.17;1833044;77;25727;-79
2021/04/19 00:39:01;;;;;;;73.07;38.73;;;;;;;4.27;74.34;97270.67;1824796;77;25803;-79
2021/04/19 00:41:29;;;;;;;67.80;38.30;;;;;;;4.26;74.35;97269.50;1817150;77;27483;-79
2021/04/19 00:43:57;;;;;;;68.15;38.28;;;;;;;4.24;74.37;97274.19;1822167;77;26237;-79
2021/04/19 00:46:24;;;;;;;64.97;36.28;;;;;;;4.21;74.42;97270.55;1842792;77;25698;-79
2021/04/19 00:48:52;;;;;;;53.78;33.83;;;;;;;4.23;74.44;97269.84;1842747;77;25714;-79
2021/04/19 00:51:20;;;;;;;65.30;36.77;;;;;;;4.21;74.45;97263.88;1842902;77;25737;-79
2021/04/19 00:53:47;;;;;;;62.75;35.33;;;;;;;4.22;74.49;97266.38;1842651;77;27474;-79
2021/04/19 00:56:15;;;;;;;63.42;35.70;;;;;;;4.21;74.47;97267.88;1842439;77;26441;-79
2021/04/19 00:58:45;;;;;;;69.77;38.10;;;;;;;4.22;74.52;97261.53;1820421;77;26342;-79
2021/04/19 01:01:13;;;;;;;62.85;35.70;;;;;;;4.21;74.56;97259.86;1819140;77;26100;-79
2021/04/19 01:03:41;;;;;;;70.55;38.28;;;;;;;4.21;74.60;97265.20;1808955;77;25826;-79
2021/04/19 01:06:10;;;;;;;68.30;36.73;;;;;;;4.22;74.67;97265.54;1815528;77;27568;-79
2021/04/19 01:08:38;;;;;;;69.60;37.73;;;;;;;4.22;74.71;97256.19;1824438;77;25431;-79
2021/04/19 01:11:05;;;;;;;69.87;39.15;;;;;;;4.22;74.74;97258.86;1832995;77;25688;-79
2021/04/19 01:13:33;;;;;;;64.17;37.33;;;;;;;4.19;74.75;97254.69;1825480;77;25692;-79
2021/04/19 01:16:01;;;;;;;67.37;38.25;;;;;;;4.21;74.77;97262.03;1842767;77;25670;-79
2021/04/19 01:18:28;;;;;;;71.72;38.98;;;;;;;4.20;74.76;97255.53;1829451;77;27468;-79
2021/04/19 01:20:56;;;;;;;66.80;38.75;;;;;;;4.21;74.78;97254.52;1809176;77;25835;-79
2021/04/19 01:23:24;;;;;;;73.87;40.80;;;;;;;4.18;74.75;97254.86;1805337;77;25750;-79
2021/04/19 01:25:51;;;;;;;71.05;38.70;;;;;;;4.18;74.81;97254.86;1842727;77;26652;-79
2021/04/19 01:28:21;;;;;;;73.95;38.63;;;;;;;4.17;74.85;97253.20;1797861;77;25747;-79
2021/04/19 01:30:51;;;;;;;73.95;38.15;;;;;;;4.18;74.91;97252.19;1782581;77;26712;-79
2021/04/19 01:33:19;;;;;;;66.33;37.40;;;;;;;4.16;74.91;97250.19;1772819;78;25755;-80
2021/04/19 01:35:47;;;;;;;72.00;37.35;;;;;;;4.14;74.94;97246.36;1793641;77;25696;-79
2021/04/19 01:38:22;;;;;;;65.42;37.30;;;;;;;4.08;75.01;97249.74;1796538;77;25679;-79
2021/04/19 01:40:54;;;;;;;72.50;38.73;;;;;;;4.07;75.09;97245.91;1792481;77;25853;-80
2021/04/19 01:43:23;;;;;;;74.42;39.20;;;;;;;4.07;75.18;97248.08;1790077;77;28528;-79
2021/04/19 01:45:51;;;;;;;77.12;39.60;;;;;;;4.06;75.20;97250.92;1788596;77;25734;-79
2021/04/19 01:48:23;;;;;;;72.82;38.67;;;;;;;4.04;75.20;97253.76;1789151;77;26617;-79
2021/04/19 01:50:53;;;;;;;73.52;39.25;;;;;;;4.05;75.25;97246.58;1798088;77;25724;-80
2021/04/19 01:53:21;;;;;;;79.10;39.63;;;;;;;4.05;75.34;97252.75;1795998;77;25758;-79
2021/04/19 01:55:50;;;;;;;81.45;44.03;;;;;;;4.05;75.39;97251.92;1799345;77;28487;-80
2021/04/19 01:58:26;;;;;;;82.67;42.70;;;;;;;4.06;75.41;97249.08;1798733;77;25732;-80
2021/04/19 02:00:57;;;;;;;83.07;42.73;;;;;;;4.05;75.42;97245.24;1791157;77;26257;-79
2021/04/19 02:03:57;;;;;;;93.60;47.75;;;;;;;4.05;75.46;97247.91;1764224;79;25799;-79
2021/04/19 02:06:32;;;;;;;98.05;46.50;;;;;;;4.05;75.53;97245.24;1798289;77;25731;-79
2021/04/19 02:09:14;;;;;;;80.32;41.05;;;;;;;4.07;75.58;97244.57;1771201;79;27507;-79
2021/04/19 02:12:11;;;;;;;80.20;40.98;;;;;;;4.04;75.54;97239.06;1778698;79;25725;-79
2021/04/19 02:14:52;;;;;;;75.25;39.92;;;;;;;4.02;75.55;97239.73;1793640;77;25900;-79
2021/04/19 02:17:54;;;;;;;78.83;40.65;;;;;;;4.02;75.55;97239.73;1775871;79;25755;-79
2021/04/19 02:20:39;;;;;;;78.97;40.80;;;;;;;4.03;75.59;97241.91;1792193;77;25766;-79
2021/04/19 02:23:21;;;;;;;84.80;43.73;;;;;;;4.03;75.64;97241.41;1799042;77;27565;-79
2021/04/19 02:25:54;;;;;;;82.47;43.20;;;;;;;4.05;75.65;97239.90;1777620;79;25759;-79
2021/04/19 02:28:34;;;;;;;80.20;42.03;;;;;;;4.05;75.59;97241.23;1784762;77;25814;-79
2021/04/19 02:31:06;;;;;;;80.35;42.35;;;;;;;4.06;75.57;97240.23;1846542;77;26438;-79
2021/04/19 02:33:41;;;;;;;76.95;40.17;;;;;;;4.07;75.58;97243.23;1829856;77;25791;-79
2021/04/19 02:36:11;;;;;;;68.05;37.98;;;;;;;4.07;75.62;97239.23;1808639;77;28865;-80
2021/04/19 02:38:42;;;;;;;60.73;34.78;;;;;;;4.07;75.61;97237.89;1811241;77;25757;-79
2021/04/19 02:41:13;;;;;;;66.75;36.70;;;;;;;4.05;75.62;97235.89;1818600;77;25719;-79
2021/04/19 02:43:41;;;;;;;61.00;34.83;;;;;;;4.04;75.71;97232.89;1799281;77;26460;-80
2021/04/19 02:46:10;;;;;;;65.00;36.20;;;;;;;4.04;75.79;97235.56;1798832;77;25892;-79
2021/04/19 02:48:40;;;;;;;58.92;34.00;;;;;;;4.02;75.80;97230.89;1798781;77;27534;-80
2021/04/19 02:51:09;;;;;;;60.40;34.85;;;;;;;4.02;75.93;97229.56;1813485;77;25823;-79
2021/04/19 02:53:39;;;;;;;68.00;38.92;;;;;;;3.92;75.99;97225.77;1828457;77;25721;-79
2021/04/19 02:56:08;;;;;;;69.92;38.75;;;;;;;3.87;76.14;97226.78;1835418;77;25704;-79
2021/04/19 02:58:50;;;;;;;71.07;39.40;;;;;;;3.86;76.30;97225.98;1799384;77;26386;-79
2021/04/19 03:01:25;;;;;;;75.08;41.35;;;;;;;3.84;76.42;97223.98;1809589;77;27556;-79
2021/04/19 03:03:56;;;;;;;68.67;38.20;;;;;;;3.85;76.50;97225.65;1799243;77;26291;-78
2021/04/19 03:06:26;;;;;;;72.60;41.35;;;;;;;3.83;76.53;97226.32;1799288;77;25793;-80
2021/04/19 03:08:57;;;;;;;71.50;40.95;;;;;;;3.85;76.62;97230.16;1799386;77;25708;-79
2021/04/19 03:11:32;;;;;;;72.53;41.03;;;;;;;3.88;76.68;97223.11;1799669;77;25754;-79
2021/04/19 03:14:05;;;;;;;83.52;41.65;;;;;;;3.90;76.71;97225.94;1799334;77;27496;-79
2021/04/19 03:16:36;;;;;;;76.92;41.35;;;;;;;3.92;76.69;97226.61;1799217;77;25647;-79
2021/04/19 03:19:06;;;;;;;75.62;41.08;;;;;;;3.96;76.74;97225.27;1799352;77;25681;-79
2021/04/19 03:21:37;;;;;;;75.32;41.02;;;;;;;3.97;76.77;97220.25;1832434;76;26487;-79
2021/04/19 03:24:08;;;;;;;72.90;40.33;;;;;;;3.97;76.76;97220.25;1799437;77;25750;-79
2021/04/19 03:26:37;;;;;;;85.60;42.30;;;;;;;3.96;76.77;97221.25;1832283;77;27495;-79
2021/04/19 03:29:05;;;;;;;74.77;40.83;;;;;;;3.97;76.78;97220.75;1818314;77;25766;-79
2021/04/19 03:31:46;;;;;;;83.37;42.95;;;;;;;3.96;76.83;97218.58;1831771;77;26488;-79
2021/04/19 03:34:21;;;;;;;79.32;41.35;;;;;;;3.96;76.85;97216.41;1832031;77;26326;-79
2021/04/19 03:37:06;;;;;;;76.12;42.58;;;;;;;3.95;76.89;97220.92;1800390;77;26420;-79
2021/04/19 03:39:35;;;;;;;81.97;44.67;;;;;;;3.92;76.91;97217.77;1787311;77;28965;-79
2021/04/19 03:42:04;;;;;;;77.30;43.25;;;;;;;3.87;76.92;97216.94;1804068;77;25874;-79
2021/04/19 03:44:35;;;;;;;77.72;41.18;;;;;;;3.85;77.00;97216.30;1794677;77;25802;-79
2021/04/19 03:47:05;;;;;;;75.67;42.43;;;;;;;3.87;77.11;97216.94;1809665;77;30633;-79
2021/04/19 03:49:44;;;;;;;75.83;40.58;;;;;;;3.89;77.16;97217.59;1809551;77;25904;-79
2021/04/19 03:52:16;;;;;;;70.00;40.75;;;;;;;3.89;77.18;97211.42;1809309;77;28358;-79
2021/04/19 03:54:47;;;;;;;64.62;38.73;;;;;;;3.91;77.23;97214.26;1809613;77;25729;-80
2021/04/19 03:57:19;;;;;;;66.62;39.55;;;;;;;3.94;77.25;97210.41;1809648;77;25709;-79
2021/04/19 03:59:51;;;;;;;74.60;38.40;;;;;;;3.96;77.28;97207.07;1814462;77;26485;-78
2021/04/19 04:02:21;;;;;;;64.60;38.65;;;;;;;3.96;77.29;97203.90;1809590;77;25754;-79
2021/04/19 04:04:50;;;;;;;67.62;39.18;;;;;;;3.99;77.33;97204.03;1818910;77;28485;-79
2021/04/19 04:07:20;;;;;;;65.80;38.25;;;;;;;4.02;77.31;97206.86;1800806;77;25794;-78
2021/04/19 04:09:49;;;;;;;65.37;37.63;;;;;;;4.02;77.30;97205.02;1842702;77;26235;-79
2021/04/19 04:12:17;;;;;;;68.67;39.95;;;;;;;4.03;77.28;97206.69;1804250;77;25774;-78
2021/04/19 04:14:55;;;;;;;70.57;40.10;;;;;;;4.05;77.28;97207.84;1809682;77;25744;-79
2021/04/19 04:17:22;;;;;;;70.57;40.52;;;;;;;4.07;77.31;97201.83;1794283;77;27283;-79
2021/04/19 04:19:50;;;;;;;78.55;41.55;;;;;;;4.10;77.29;97202.33;1802704;77;25720;-79
2021/04/19 04:22:19;;;;;;;73.55;40.73;;;;;;;4.12;77.30;97202.12;1821770;77;25760;-79
2021/04/19 04:24:47;;;;;;;75.75;41.53;;;;;;;4.13;77.30;97201.11;1811454;77;25750;-79
2021/04/19 04:27:16;;;;;;;71.72;40.35;;;;;;;4.17;77.31;97198.43;1827970;77;25801;-79
2021/04/19 04:29:44;;;;;;;72.32;40.40;;;;;;;4.17;77.25;97196.59;1829146;77;27536;-79
2021/04/19 04:32:12;;;;;;;70.20;41.85;;;;;;;4.20;77.33;97196.75;1825897;77;25692;-79
2021/04/19 04:34:39;;;;;;;73.20;42.70;;;;;;;4.22;77.30;97197.41;1813696;77;25772;-79
2021/04/19 04:37:08;;;;;;;77.27;44.27;;;;;;;4.22;77.30;97198.75;1787379;77;25837;-79
2021/04/19 04:39:35;;;;;;;73.42;40.25;;;;;;;4.24;77.29;97198.04;1802914;77;25792;-79
2021/04/19 04:42:07;;;;;;;62.88;39.42;;;;;;;4.25;77.28;97195.70;1803033;77;27463;-79
2021/04/19 04:44:40;;;;;;;88.55;44.35;;;;;;;4.27;77.26;97196.36;1809461;77;26109;-79
2021/04/19 04:47:36;;;;;;;91.63;47.60;;;;;;;4.30;77.22;97192.00;1809620;77;25665;-79
2021/04/19 04:50:15;;;;;;;80.00;44.70;;;;;;;4.32;77.21;97198.01;1798336;77;25778;-79
2021/04/19 04:53:00;;;;;;;76.92;44.08;;;;;;;4.35;77.22;97201.14;1826482;77;25865;-79
2021/04/19 04:55:30;;;;;;;72.32;43.15;;;;;;;4.38;77.26;97197.28;1801390;77;28443;-79
2021/04/19 04:58:01;;;;;;;77.58;45.98;;;;;;;4.41;77.24;97192.92;1809368;77;25759;-80
2021/04/19 05:00:30;;;;;;;74.62;46.48;;;;;;;4.45;77.29;97202.27;1809647;77;25807;-80
2021/04/19 05:02:59;;;;;;;77.05;46.20;;;;;;;4.50;77.36;97206.55;1809572;77;25750;-79
2021/04/19 05:05:27;;;;;;;73.65;44.23;;;;;;;4.54;77.34;97199.84;1809513;77;25714;-80
2021/04/19 05:07:55;;;;;;;70.85;44.58;;;;;;;4.58;77.34;97196.32;1821686;77;28462;-80
2021/04/19 05:10:23;;;;;;;73.60;44.20;;;;;;;4.61;77.32;97191.93;1797857;77;26130;-80
2021/04/19 05:12:50;;;;;;;85.95;46.63;;;;;;;4.63;77.29;97192.08;1807790;77;25815;-80
2021/04/19 05:15:18;;;;;;;77.75;45.35;;;;;;;4.65;77.25;97190.57;1795895;77;25821;-80
2021/04/19 05:17:46;;;;;;;72.27;42.73;;;;;;;4.67;77.30;97196.07;1809598;77;25719;-80
2021/04/19 05:20:16;;;;;;;79.72;50.23;;;;;;;4.68;77.19;97195.56;1809576;77;27777;-80
2021/04/19 05:22:44;;;;;;;82.02;49.63;;;;;;;4.69;77.22;97195.39;1809353;77;25295;-80
2021/04/19 05:25:13;;;;;;;84.00;52.43;;;;;;;4.73;77.17;97193.67;1832876;77;25720;-80
2021/04/19 05:27:42;;;;;;;113.12;63.40;;;;;;;4.75;77.21;97193.83;1796383;77;25781;-80
2021/04/19 05:30:12;;;;;;;133.97;74.40;;;;;;;4.79;77.27;97195.64;1800213;77;25741;-81
2021/04/19 05:32:40;;;;;;;121.70;61.90;;;;;;;4.81;77.33;97195.80;1795683;79;26964;-80
2021/04/19 05:35:11;;;;;;;97.95;54.15;;;;;;;4.83;77.33;97191.07;1795608;79;25762;-80
2021/04/19 05:37:42;;;;;;;97.80;53.10;;;;;;;4.86;77.26;97193.90;1795860;79;25780;-79
2021/04/19 05:40:11;;;;;;;90.25;51.48;;;;;;;4.88;77.24;97201.23;1769434;79;26453;-80
2021/04/19 05:42:39;;;;;;;91.70;49.73;;;;;;;4.88;77.26;97198.56;1763947;79;26323;-80
2021/04/19 05:45:08;;;;;;;84.87;48.45;;;;;;;4.90;77.23;97197.38;1781809;79;27572;-80
2021/04/19 05:47:37;;;;;;;97.97;53.95;;;;;;;4.92;77.27;97194.02;1767081;79;25814;-80
2021/04/19 05:50:07;;;;;;;85.05;47.50;;;;;;;4.93;77.22;97202.88;1780230;79;26196;-80
2021/04/19 05:52:36;;;;;;;87.78;48.30;;;;;;;4.94;77.16;97197.86;1773274;79;26374;-80
2021/04/19 05:55:06;;;;;;;89.52;49.25;;;;;;;4.95;77.16;97202.20;1780949;79;25759;-80
2021/04/19 05:57:57;;;;;;;87.10;50.20;;;;;;;4.98;77.24;97197.80;1745352;79;27566;-80
2021/04/19 06:00:39;;;;;;;81.05;44.50;;;;;;;5.01;77.22;97201.45;1795463;79;26206;-80
2021/04/19 06:03:23;;;;;;;73.78;43.70;;;;;;;5.03;77.21;97198.09;1795132;78;25389;-79
2021/04/19 06:06:34;;;;;;;72.35;42.03;;;;;;;5.05;77.24;97199.59;1782616;79;25866;-80
2021/04/19 06:09:31;;;;;;;72.20;42.60;;;;;;;5.09;77.28;97194.69;1774416;79;25763;-80
2021/04/19 06:12:04;;;;;;;66.17;40.75;;;;;;;5.12;77.30;97197.51;1784595;79;28404;-80
2021/04/19 06:14:42;;;;;;;74.62;43.78;;;;;;;5.15;77.27;97188.62;1789535;78;25691;-80
2021/04/19 06:17:13;;;;;;;84.10;48.13;;;;;;;5.20;77.23;97186.20;1792183;79;25711;-80
2021/04/19 06:19:44;;;;;;;84.80;47.33;;;;;;;5.26;77.15;97192.18;1770259;79;25710;-80
2021/04/19 06:22:20;;;;;;;90.40;50.30;;;;;;;5.32;77.16;97197.29;1773518;79;25811;-80
2021/04/19 06:24:50;;;;;;;90.00;51.30;;;;;;;5.36;77.21;97191.91;1763940;79;27497;-81
2021/04/19 06:27:25;;;;;;;90.57;47.83;;;;;;;5.38;77.08;97188.03;1786009;79;25357;-80
2021/04/19 06:29:54;;;;;;;87.12;48.78;;;;;;;5.44;77.08;97194.48;1797618;77;26302;-80
2021/04/19 06:32:23;;;;;;;76.42;45.10;;;;;;;5.50;77.16;97199.62;1837717;77;25795;-80
2021/04/19 06:34:52;;;;;;;72.42;44.13;;;;;;;5.57;77.09;97201.88;1809440;77;25702;-80
2021/04/19 06:37:21;;;;;;;77.00;44.25;;;;;;;5.64;76.90;97204.16;1809419;77;27482;-80
2021/04/19 06:39:48;;;;;;;74.32;44.60;;;;;;;5.68;76.79;97201.41;1809430;77;26067;-80
2021/04/19 06:42:17;;;;;;;78.55;44.48;;;;;;;5.71;76.75;97211.75;1807244;77;25380;-80
2021/04/19 06:44:46;;;;;;;80.12;45.45;;;;;;;5.70;76.61;97205.56;1787172;77;26271;-80
2021/04/19 06:47:15;;;;;;;83.65;47.85;;;;;;;5.73;76.57;97201.69;1827016;77;25873;-80
2021/04/19 06:49:46;;;;;;;84.90;47.73;;;;;;;5.75;76.53;97193.80;1809408;77;27491;-80
2021/04/19 06:52:13;;;;;;;81.72;47.43;;;;;;;5.77;76.51;97202.99;1809330;77;26609;-79
2021/04/19 06:54:40;;;;;;;77.22;45.43;;;;;;;5.80;76.47;97199.92;1809585;77;25815;-80
2021/04/19 06:57:10;;;;;;;80.12;47.20;;;;;;;5.85;76.43;97201.55;1809463;77;26374;-80
2021/04/19 06:59:40;;;;;;;79.67;47.67;;;;;;;5.89;76.42;97201.53;1809557;77;25270;-80
2021/04/19 07:02:26;;;;;;;77.85;44.80;;;;;;;5.95;76.49;97194.07;1793259;77;27488;-80
2021/04/19 07:04:56;;;;;;;76.67;43.45;;;;;;;5.98;76.42;97195.55;1827548;77;25737;-80
2021/04/19 07:07:28;;;;;;;77.35;46.00;;;;;;;5.98;76.45;97191.02;1842394;77;25753;-80
2021/04/19 07:09:58;;;;;;;96.55;57.17;;;;;;;6.04;76.46;97192.11;1825161;77;31778;-80
2021/04/19 07:12:27;;;;;;;103.15;63.58;;;;;;;6.07;76.31;97191.23;1809498;77;25775;-80
2021/04/19 07:14:56;;;;;;;91.63;55.55;;;;;;;6.03;76.25;97192.64;1809388;77;27506;-80
2021/04/19 07:17:25;;;;;;;89.72;55.55;;;;;;;6.09;76.25;97189.70;1809286;77;26125;-80
2021/04/19 07:19:53;;;;;;;85.87;53.15;;;;;;;6.14;76.17;97189.48;1793783;77;26275;-80
2021/04/19 07:22:24;;;;;;;90.60;52.93;;;;;;;6.19;76.23;97188.05;1809352;77;26390;-79
2021/04/19 07:24:53;;;;;;;85.72;49.40;;;;;;;6.22;76.44;97187.69;1809161;77;42873;-80
2021/04/19 07:27:21;;;;;;;90.92;53.95;;;;;;;6.25;76.46;97188.66;1826787;77;27486;-80
2021/04/19 07:29:51;;;;;;;96.53;53.78;;;;;;;6.31;76.48;97189.22;1800169;77;26379;-80
2021/04/19 07:32:22;;;;;;;84.13;51.88;;;;;;;6.34;76.56;97191.53;1788718;77;25709;-80
2021/04/19 07:34:58;;;;;;;86.08;50.30;;;;;;;6.38;76.47;97179.42;1826359;77;25877;-80
2021/04/19 07:37:25;;;;;;;82.97;51.02;;;;;;;6.43;76.32;97183.17;1799278;77;25815;-80
2021/04/19 07:39:53;;;;;;;84.72;50.92;;;;;;;6.47;76.28;97186.31;1809521;77;28531;-80
2021/04/19 07:42:21;;;;;;;88.52;52.27;;;;;;;6.43;76.10;97182.34;1809404;77;25779;-79
2021/04/19 07:44:51;;;;;;;92.33;53.42;;;;;;;6.43;76.20;97182.34;1813280;77;25809;-80
2021/04/19 07:47:40;;;;;;;88.03;52.08;;;;;;;6.36;76.13;97184.97;1830878;77;25784;-79
2021/04/19 07:50:24;;;;;;;92.45;52.67;;;;;;;6.34;76.21;97187.00;1797628;77;25288;-79
2021/04/19 07:53:08;;;;;;;98.33;57.75;;;;;;;6.35;76.41;97189.17;1808387;77;27639;-79
2021/04/19 07:55:42;;;;;;;99.72;57.03;;;;;;;6.37;76.59;97188.48;1809096;77;25782;-82
2021/04/19 07:58:22;;;;;;;100.02;56.92;;;;;;;6.33;76.50;97185.84;1809273;77;25838;-78
2021/04/19 08:00:52;;;;;;;96.42;57.38;;;;;;;6.36;76.69;97188.16;1809289;77;26574;-79
2021/04/19 08:03:22;;;;;;;91.95;52.70;;;;;;;6.36;76.71;97182.28;1809906;77;25822;-79
2021/04/19 08:05:55;;;;;;;92.55;53.15;;;;;;;6.37;76.77;97187.14;1842402;77;27471;-79
2021/04/19 08:08:37;;;;;;;100.78;56.48;;;;;;;6.33;76.71;97187.19;1827412;77;25674;-81
2021/04/19 08:11:17;;;;;;;96.40;55.75;;;;;;;6.35;76.91;97182.47;1822463;77;25815;-81
2021/04/19 08:13:46;;;;;;;93.72;52.30;;;;;;;6.39;76.93;97189.13;1818038;77;25913;-81
2021/04/19 08:16:23;;;;;;;94.15;55.35;;;;;;;6.40;77.06;97189.45;1813578;77;25766;-81
2021/04/19 08:18:52;;;;;;;93.58;52.90;;;;;;;6.42;77.12;97188.72;1801644;77;27495;-81
2021/04/19 08:21:30;;;;;;;87.37;51.85;;;;;;;6.49;77.12;97185.62;1796020;77;25745;-81
2021/04/19 08:24:16;;;;;;;82.47;50.45;;;;;;;6.51;77.13;97184.92;1809372;77;25746;-81
2021/04/19 08:26:57;;;;;;;84.97;50.25;;;;;;;6.58;77.13;97186.31;1827235;77;25753;-81
2021/04/19 08:29:46;;;;;;;87.88;52.17;;;;;;;6.61;77.12;97184.59;1811599;77;25710;-80
2021/04/19 08:32:21;;;;;;;81.25;48.95;;;;;;;6.66;77.16;97180.30;1809604;77;28508;-80
2021/04/19 08:34:50;;;;;;;84.87;52.13;;;;;;;6.62;76.79;97184.41;1801577;77;25857;-80
2021/04/19 08:37:21;;;;;;;86.95;51.15;;;;;;;6.61;76.89;97179.23;1825071;77;25824;-80
2021/04/19 08:39:50;;;;;;;84.75;50.70;;;;;;;6.65;76.97;97175.95;1809618;77;25736;-80
2021/04/19 08:42:18;;;;;;;78.02;48.85;;;;;;;6.70;77.06;97178.91;1809534;77;25848;-80
2021/04/19 08:44:47;;;;;;;83.20;51.02;;;;;;;6.73;76.96;97178.53;1809657;77;28438;-80
2021/04/19 08:47:18;;;;;;;85.22;52.30;;;;;;;6.86;77.03;97171.94;1789356;78;25826;-80
2021/04/19 08:49:46;;;;;;;87.15;50.70;;;;;;;6.99;76.84;97177.09;1841630;77;25774;-80
2021/04/19 08:52:17;;;;;;;81.70;50.50;;;;;;;7.10;76.76;97181.93;1813933;77;25653;-80
2021/04/19 08:54:46;;;;;;;80.47;49.42;;;;;;;7.13;76.47;97175.64;1817724;77;25839;-80
2021/04/19 08:57:14;;;;;;;80.77;48.90;;;;;;;7.18;76.67;97181.26;1835533;77;27480;-80
2021/04/19 08:59:44;;;;;;;76.92;48.65;;;;;;;7.24;76.80;97178.32;1792771;78;25783;-80
2021/04/19 09:02:15;;;;;;;77.03;48.00;;;;;;;7.27;76.62;97181.10;1771900;80;25814;-81
2021/04/19 09:07:33;;;;;;;82.82;49.95;;;;;;;7.41;76.77;97181.52;1873032;76;25297;-80
2021/04/19 09:10:01;;;;;;;75.50;45.73;;;;;;;7.44;76.88;97183.81;1828387;77;25719;-80
2021/04/19 09:12:31;;;;;;;67.92;41.15;;;;;;;7.54;76.85;97178.91;1825391;76;28377;-80
2021/04/19 09:15:20;;;;;;;67.92;44.05;;;;;;;7.60;76.54;97176.80;1830376;77;26128;-80
2021/04/19 09:18:09;;;;;;;85.77;50.80;;;;;;;7.64;76.39;97171.31;1847422;77;25694;-80
2021/04/19 09:20:55;;;;;;;79.60;50.03;;;;;;;7.66;76.50;97169.27;1823828;77;25306;-80
2021/04/19 09:23:32;;;;;;;78.52;51.30;;;;;;;7.69;76.60;97166.70;1834867;77;25621;-80
2021/04/19 09:26:01;;;;;;;79.67;49.13;;;;;;;7.77;76.80;97168.70;1827756;77;27476;-80
2021/04/19 09:28:46;;;;;;;70.85;45.23;;;;;;;7.85;76.72;97162.31;1840900;77;26018;-81
2021/04/19 09:31:14;;;;;;;61.40;39.38;;;;;;;7.94;76.64;97163.83;1852334;77;25753;-80
2021/04/19 09:33:42;;;;;;;58.63;36.77;;;;;;;8.02;76.64;97160.13;1828453;77;26119;-80
2021/04/19 09:36:10;;;;;;;52.08;33.55;;;;;;;8.10;76.84;97162.62;1847454;77;25687;-80
2021/04/19 09:38:48;;;;;;;57.05;36.60;;;;;;;8.23;76.90;97159.47;1822791;77;26794;-80
2021/04/19 09:41:15;;;;;;;44.08;29.07;;;;;;;8.32;76.81;97158.83;1842576;77;25630;-81
2021/04/19 09:43:54;;;;;;;33.35;22.02;;;;;;;8.39;76.71;97148.06;1852359;77;25925;-80
2021/04/19 09:46:25;;;;;;;37.33;23.92;;;;;;;8.37;76.42;97148.78;1851869;77;26412;-80
2021/04/19 09:48:59;;;;;;;31.25;21.73;;;;;;;8.24;76.44;97147.69;1842001;77;25697;-80
2021/04/19 09:51:40;;;;;;;29.72;20.68;;;;;;;8.28;76.64;97153.49;1835691;77;27480;-80
2021/04/19 09:54:15;;;;;;;33.02;20.27;;;;;;;8.36;76.59;97139.88;1832174;77;26120;-80
2021/04/19 09:56:53;;;;;;;30.88;20.40;;;;;;;8.41;76.44;97148.70;1846775;77;25740;-80
2021/04/19 09:59:25;;;;;;;33.60;21.70;;;;;;;8.32;76.24;97147.23;1849618;77;25884;-80
2021/04/19 10:01:56;;;;;;;45.03;30.63;;;;;;;8.34;76.26;97137.08;1828852;77;25822;-81
2021/04/19 10:04:25;;;;;;;36.30;25.70;;;;;;;8.34;76.37;97145.14;1851277;77;27747;-81
2021/04/19 10:06:58;;;;;;;40.83;28.83;;;;;;;8.39;76.44;97148.06;1827878;77;25913;-80
2021/04/19 10:09:30;;;;;;;33.80;23.30;;;;;;;8.43;76.34;97143.43;1829254;77;25760;-80
2021/04/19 10:12:05;;;;;;;34.83;24.20;;;;;;;8.45;76.34;97136.51;1852470;77;25759;-80
2021/04/19 10:14:38;;;;;;;35.95;25.00;;;;;;;8.50;76.37;97142.08;1842693;77;26614;-80
2021/04/19 10:17:22;;;;;;;38.05;25.32;;;;;;;8.60;76.38;97142.51;1824135;77;27480;-80
2021/04/19 10:19:50;;;;;;;35.13;24.25;;;;;;;8.68;76.22;97140.16;1851499;77;25274;-80
2021/04/19 10:22:19;;;;;;;37.08;25.40;;;;;;;8.75;76.06;97136.94;1843678;77;26045;-80
2021/04/19 10:24:58;;;;;;;33.42;24.15;;;;;;;8.78;75.95;97140.05;1836193;77;25295;-80
2021/04/19 10:27:32;;;;;;;33.53;22.40;;;;;;;8.81;75.73;97138.30;1839269;77;26314;-80
2021/04/19 10:30:16;;;;;;;35.80;24.63;;;;;;;8.83;75.52;97138.06;1839181;77;27488;-80
2021/04/19 10:32:47;;;;;;;34.60;22.77;;;;;;;8.85;75.54;97134.14;1842925;77;25771;-80
2021/04/19 10:35:39;;;;;;;31.77;20.85;;;;;;;8.89;75.44;97130.02;1847161;77;25516;-81
2021/04/19 10:38:07;;;;;;;29.85;20.43;;;;;;;8.91;75.48;97137.37;1847659;77;25740;-81
2021/04/19 10:40:34;;;;;;;27.75;19.40;;;;;;;8.85;75.50;97135.48;1826711;77;25712;-81
2021/04/19 10:45:47;;;;;;;26.35;19.42;;;;;;;8.85;75.41;97131.97;1835219;76;25678;-78
2021/04/19 10:48:22;;;;;;;27.65;19.30;;;;;;;8.81;75.41;97134.27;1819703;78;25845;-79
2021/04/19 10:50:52;;;;;;;26.87;18.75;;;;;;;8.74;75.21;97129.38;1806527;78;27482;-79
2021/04/19 10:53:38;;;;;;;25.80;18.60;;;;;;;8.73;75.29;97132.27;1803514;78;25711;-78
2021/04/19 10:56:08;;;;;;;23.30;16.85;;;;;;;8.70;75.22;97128.64;1787448;78;26255;-80
2021/04/19 10:58:38;;;;;;;23.42;14.87;;;;;;;8.65;75.38;97129.28;1811503;77;26379;-80
2021/04/19 11:01:06;;;;;;;27.10;19.30;;;;;;;8.71;75.38;97133.83;1805959;78;25743;-80
2021/04/19 11:03:36;;;;;;;28.12;20.43;;;;;;;8.78;75.37;97134.67;1799578;78;27408;-80
2021/04/19 11:06:10;;;;;;;27.82;19.20;;;;;;;8.82;75.41;97133.20;1786403;78;26083;-80
2021/04/19 11:09:01;;;;;;;24.57;17.65;;;;;;;8.88;75.29;97129.70;1810960;78;25676;-80
2021/04/19 11:11:39;;;;;;;25.75;18.48;;;;;;;8.90;75.09;97124.94;1816318;78;26136;-80
2021/04/19 11:14:14;;;;;;;36.50;23.00;;;;;;;8.94;75.14;97126.16;1801545;78;25664;-80
2021/04/19 11:17:06;;;;;;;29.65;20.23;;;;;;;8.97;75.03;97129.80;1784666;78;27492;-80
2021/04/19 11:19:42;;;;;;;25.50;15.98;;;;;;;9.01;75.01;97125.66;1795190;78;26291;-80
2021/04/19 11:22:25;;;;;;;24.30;18.15;;;;;;;9.01;74.85;97121.63;1791213;78;25778;-80
2021/04/19 11:25:18;;;;;;;25.62;17.00;;;;;;;8.91;75.01;97131.98;1790264;78;25758;-81
2021/04/19 11:27:50;;;;;;;20.23;14.93;;;;;;;8.88;75.31;97130.22;1797925;78;26647;-80
2021/04/19 11:30:27;;;;;;;22.27;15.68;;;;;;;8.88;75.32;97134.25;1787513;78;27492;-80
2021/04/19 11:33:12;;;;;;;19.70;14.58;;;;;;;8.90;75.13;97129.50;1787423;78;25806;-80
2021/04/19 11:35:48;;;;;;;17.92;13.03;;;;;;;8.89;74.94;97124.62;1747254;81;25807;-80
2021/04/19 11:38:22;;;;;;;19.82;13.60;;;;;;;8.86;74.88;97127.73;1753170;80;25831;-80
2021/04/19 11:40:55;;;;;;;22.93;17.70;;;;;;;8.78;74.80;97128.46;1762394;80;25836;-81
2021/04/19 11:43:38;;;;;;;22.17;15.63;;;;;;;8.71;74.94;97127.09;1751435;80;27502;-81
2021/04/19 11:46:10;;;;;;;28.87;18.37;;;;;;;8.76;74.99;97127.31;1746932;81;25804;-81
2021/04/19 11:48:42;;;;;;;28.00;17.85;;;;;;;8.82;74.90;97129.17;1748385;81;25872;-81
2021/04/19 11:51:14;;;;;;;40.80;22.52;;;;;;;8.82;74.58;97119.75;1731862;81;25849;-81
2021/04/19 11:53:45;;;;;;;41.18;21.60;;;;;;;8.84;74.58;97123.06;1750533;80;26415;-82
2021/04/19 11:56:14;;;;;;;29.55;20.08;;;;;;;8.81;74.43;97122.16;1776903;80;26932;-80